Portada
METAR-TAF:

METAR-TAF

Aeroports :

Kinshasa, Congo

latitud: 04-23S, longitud: 015-26E, altitud: 309 m

Observació

L'informe es va fer fa 1 hora i 23 minuts, a les 07:00 UTC
Vent 4 kt del Oest/Sud-Oest
Temperatura 23°C
Humitat 73%
Pressió 1015 hPa
Visibilitat: 6000 m
Escasses núvols a una alçada de 1400 ft

METAR: FZAA 190700Z 25004KT 6000 FEW014 23/18 Q1015 NOSIG

Hora: 09:23 (08:23 UTC)

Pronòstic

L'informe es va fer fa 3 hores i 23 minuts, a les 05:00 UTC
Pronòstic vàlid del 19 a les 06 UTC al 20 a les 12 UTC
Vent 4 kt del Sud
Visibilitat: 6000 m
Cel ennuvolat a una alçada de 1400 ft
Probabilitat 30% :
Temporalment
l' 19 a les 07 UTC al 19 a les 11 UTC
Visibilitat: 4000 m
boirina
Evolucionant progressivament
l' 19 a les 12 UTC al 19 a les 14 UTC
Vent 12 kt del Nord/Nord-Oest
Escasses núvols a una alçada de 2000 ft

TAF: FZAA 190500Z 1906/2012 18004KT 6000 BKN014 PROB30 TEMPO 1907/1911 4000 BR BECMG 1912/1914 33012KT FEW020

Observacions i pronòstics meteorològics de més de 4000 aeroports (METAR i TAF).

Les estacions disponibles són els punts grocs i vermells al mapa.

Posi el ratolí al punt desitjat per veure el nom de l'estació.

Feu clic per veure les observacions i els pronòstics meteorològics.

Per canviar el mapa: feu clic els botons verds amb una creu de color negre per apropar; al botó verd amb un guió per allunyar la imatge; o en les fletxes verdes per a mapes adjacents.


METAR-TAF: